sensor_id;sensor_type;location;lat;lon;timestamp;P1;durP1;ratioP1;P2;durP2;ratioP2
45252;SDS011;30988;50.518;30.486;2022-08-04T00:00:04;7.60;;;6.97;;
45252;SDS011;30988;50.518;30.486;2022-08-04T00:00:39;7.68;;;7.07;;
45252;SDS011;30988;50.518;30.486;2022-08-04T00:01:16;8.57;;;7.78;;
45252;SDS011;30988;50.518;30.486;2022-08-04T00:01:53;8.07;;;7.50;;
45252;SDS011;30988;50.518;30.486;2022-08-04T00:02:42;7.35;;;6.68;;
45252;SDS011;30988;50.518;30.486;2022-08-04T00:03:23;9.35;;;8.55;;
45252;SDS011;30988;50.518;30.486;2022-08-04T00:03:59;8.50;;;7.75;;
45252;SDS011;30988;50.518;30.486;2022-08-04T00:04:35;8.18;;;7.38;;
45252;SDS011;30988;50.518;30.486;2022-08-04T00:05:18;8.82;;;7.28;;
45252;SDS011;30988;50.518;30.486;2022-08-04T00:05:59;7.22;;;6.63;;
45252;SDS011;30988;50.518;30.486;2022-08-04T00:06:39;8.13;;;7.53;;
45252;SDS011;30988;50.518;30.486;2022-08-04T00:07:24;8.02;;;7.32;;
45252;SDS011;30988;50.518;30.486;2022-08-04T00:08:04;8.77;;;8.02;;
45252;SDS011;30988;50.518;30.486;2022-08-04T00:08:43;9.43;;;8.50;;
45252;SDS011;30988;50.518;30.486;2022-08-04T00:09:22;9.40;;;7.85;;
45252;SDS011;30988;50.518;30.486;2022-08-04T00:10:01;8.50;;;7.82;;
45252;SDS011;30988;50.518;30.486;2022-08-04T00:10:34;8.63;;;7.93;;
45252;SDS011;30988;50.518;30.486;2022-08-04T00:11:10;9.02;;;8.23;;
45252;SDS011;30988;50.518;30.486;2022-08-04T00:11:45;9.75;;;8.40;;
45252;SDS011;30988;50.518;30.486;2022-08-04T00:12:20;9.85;;;8.88;;
45252;SDS011;30988;50.518;30.486;2022-08-04T00:12:54;9.10;;;8.23;;
45252;SDS011;30988;50.518;30.486;2022-08-04T00:13:29;7.95;;;7.22;;
45252;SDS011;30988;50.518;30.486;2022-08-04T00:14:03;9.40;;;8.65;;
45252;SDS011;30988;50.518;30.486;2022-08-04T00:14:45;8.85;;;8.10;;
45252;SDS011;30988;50.518;30.486;2022-08-04T00:15:20;9.57;;;8.77;;
45252;SDS011;30988;50.518;30.486;2022-08-04T00:15:55;7.90;;;7.30;;
45252;SDS011;30988;50.518;30.486;2022-08-04T00:16:29;9.25;;;8.40;;
45252;SDS011;30988;50.518;30.486;2022-08-04T00:17:04;8.77;;;8.02;;
45252;SDS011;30988;50.518;30.486;2022-08-04T00:17:37;8.52;;;7.72;;
45252;SDS011;30988;50.518;30.486;2022-08-04T00:18:10;9.02;;;8.10;;
45252;SDS011;30988;50.518;30.486;2022-08-04T00:18:49;9.48;;;8.55;;
45252;SDS011;30988;50.518;30.486;2022-08-04T00:19:28;9.88;;;9.10;;
45252;SDS011;30988;50.518;30.486;2022-08-04T00:20:02;9.35;;;8.55;;
45252;SDS011;30988;50.518;30.486;2022-08-04T00:20:38;9.30;;;8.50;;
45252;SDS011;30988;50.518;30.486;2022-08-04T00:21:12;8.88;;;8.02;;
45252;SDS011;30988;50.518;30.486;2022-08-04T00:21:47;7.63;;;7.03;;
45252;SDS011;30988;50.518;30.486;2022-08-04T00:22:26;9.32;;;8.35;;
45252;SDS011;30988;50.518;30.486;2022-08-04T00:22:59;9.90;;;8.90;;
45252;SDS011;30988;50.518;30.486;2022-08-04T00:23:32;8.80;;;7.97;;
45252;SDS011;30988;50.518;30.486;2022-08-04T00:24:04;8.50;;;7.85;;
45252;SDS011;30988;50.518;30.486;2022-08-04T00:24:37;9.20;;;8.40;;
45252;SDS011;30988;50.518;30.486;2022-08-04T00:25:10;9.57;;;8.70;;
45252;SDS011;30988;50.518;30.486;2022-08-04T00:25:41;9.25;;;8.48;;
45252;SDS011;30988;50.518;30.486;2022-08-04T00:26:14;9.38;;;8.57;;
45252;SDS011;30988;50.518;30.486;2022-08-04T00:26:47;9.55;;;8.70;;
45252;SDS011;30988;50.518;30.486;2022-08-04T00:27:19;9.40;;;8.70;;
45252;SDS011;30988;50.518;30.486;2022-08-04T00:27:50;8.70;;;8.00;;
45252;SDS011;30988;50.518;30.486;2022-08-04T00:28:24;9.95;;;9.13;;
45252;SDS011;30988;50.518;30.486;2022-08-04T00:28:56;8.20;;;7.50;;
45252;SDS011;30988;50.518;30.486;2022-08-04T00:29:28;9.18;;;8.27;;
45252;SDS011;30988;50.518;30.486;2022-08-04T00:30:01;10.07;;;9.13;;
45252;SDS011;30988;50.518;30.486;2022-08-04T00:30:33;10.00;;;8.98;;
45252;SDS011;30988;50.518;30.486;2022-08-04T00:31:06;10.13;;;9.23;;
45252;SDS011;30988;50.518;30.486;2022-08-04T00:31:40;9.95;;;9.00;;
45252;SDS011;30988;50.518;30.486;2022-08-04T00:32:12;9.10;;;8.30;;
45252;SDS011;30988;50.518;30.486;2022-08-04T00:32:44;10.15;;;9.27;;
45252;SDS011;30988;50.518;30.486;2022-08-04T00:33:17;10.85;;;9.75;;
45252;SDS011;30988;50.518;30.486;2022-08-04T00:33:49;9.73;;;8.93;;
45252;SDS011;30988;50.518;30.486;2022-08-04T00:34:21;9.00;;;8.30;;
45252;SDS011;30988;50.518;30.486;2022-08-04T00:34:56;10.07;;;8.63;;
45252;SDS011;30988;50.518;30.486;2022-08-04T00:35:28;9.75;;;9.05;;
45252;SDS011;30988;50.518;30.486;2022-08-04T00:36:00;10.15;;;9.25;;
45252;SDS011;30988;50.518;30.486;2022-08-04T00:36:33;10.00;;;9.10;;
45252;SDS011;30988;50.518;30.486;2022-08-04T00:37:05;10.30;;;9.30;;
45252;SDS011;30988;50.518;30.486;2022-08-04T00:37:36;10.65;;;9.25;;
45252;SDS011;30988;50.518;30.486;2022-08-04T00:38:09;10.43;;;8.95;;
45252;SDS011;30988;50.518;30.486;2022-08-04T00:38:41;9.40;;;8.60;;
45252;SDS011;30988;50.518;30.486;2022-08-04T00:39:15;9.23;;;8.20;;
45252;SDS011;30988;50.518;30.486;2022-08-04T00:39:47;10.60;;;9.40;;
45252;SDS011;30988;50.518;30.486;2022-08-04T00:40:22;8.82;;;7.93;;
45252;SDS011;30988;50.518;30.486;2022-08-04T00:41:00;9.48;;;8.77;;
45252;SDS011;30988;50.518;30.486;2022-08-04T00:41:42;10.85;;;8.73;;
45252;SDS011;30988;50.518;30.486;2022-08-04T00:42:33;10.15;;;8.85;;
45252;SDS011;30988;50.518;30.486;2022-08-04T00:43:12;9.30;;;8.48;;
45252;SDS011;30988;50.518;30.486;2022-08-04T00:43:56;8.90;;;8.20;;
45252;SDS011;30988;50.518;30.486;2022-08-04T00:44:56;9.93;;;9.13;;
45252;SDS011;30988;50.518;30.486;2022-08-04T00:45:52;14.32;;;9.57;;
45252;SDS011;30988;50.518;30.486;2022-08-04T00:46:50;12.15;;;8.70;;
45252;SDS011;30988;50.518;30.486;2022-08-04T00:47:43;9.10;;;8.40;;
45252;SDS011;30988;50.518;30.486;2022-08-04T00:48:29;9.95;;;9.15;;
45252;SDS011;30988;50.518;30.486;2022-08-04T00:49:25;9.52;;;8.57;;
45252;SDS011;30988;50.518;30.486;2022-08-04T00:50:15;10.38;;;9.27;;
45252;SDS011;30988;50.518;30.486;2022-08-04T00:50:56;9.57;;;8.63;;
45252;SDS011;30988;50.518;30.486;2022-08-04T00:51:43;9.38;;;8.38;;
45252;SDS011;30988;50.518;30.486;2022-08-04T00:52:25;10.00;;;9.07;;
45252;SDS011;30988;50.518;30.486;2022-08-04T00:53:07;9.50;;;8.70;;
45252;SDS011;30988;50.518;30.486;2022-08-04T00:53:51;10.20;;;9.23;;
45252;SDS011;30988;50.518;30.486;2022-08-04T00:54:30;9.52;;;8.63;;
45252;SDS011;30988;50.518;30.486;2022-08-04T00:55:22;8.93;;;8.23;;
45252;SDS011;30988;50.518;30.486;2022-08-04T00:56:14;9.38;;;8.48;;
45252;SDS011;30988;50.518;30.486;2022-08-04T00:57:05;9.07;;;8.32;;
45252;SDS011;30988;50.518;30.486;2022-08-04T00:58:58;9.27;;;8.38;;
45252;SDS011;30988;50.518;30.486;2022-08-04T00:59:40;9.25;;;8.55;;
45252;SDS011;30988;50.518;30.486;2022-08-04T01:00:19;11.45;;;8.80;;
45252;SDS011;30988;50.518;30.486;2022-08-04T01:00:54;10.10;;;9.30;;
45252;SDS011;30988;50.518;30.486;2022-08-04T01:01:39;9.57;;;8.63;;
45252;SDS011;30988;50.518;30.486;2022-08-04T01:02:24;9.85;;;9.00;;
45252;SDS011;30988;50.518;30.486;2022-08-04T01:03:08;9.15;;;8.45;;
45252;SDS011;30988;50.518;30.486;2022-08-04T01:04:26;9.30;;;8.40;;
45252;SDS011;30988;50.518;30.486;2022-08-04T01:05:11;10.55;;;9.15;;
45252;SDS011;30988;50.518;30.486;2022-08-04T01:05:54;9.05;;;8.35;;
45252;SDS011;30988;50.518;30.486;2022-08-04T01:06:36;10.32;;;9.20;;
45252;SDS011;30988;50.518;30.486;2022-08-04T01:07:26;9.85;;;8.90;;
45252;SDS011;30988;50.518;30.486;2022-08-04T01:08:15;10.85;;;9.82;;
45252;SDS011;30988;50.518;30.486;2022-08-04T01:09:11;10.82;;;9.73;;
45252;SDS011;30988;50.518;30.486;2022-08-04T01:09:57;10.77;;;9.75;;
45252;SDS011;30988;50.518;30.486;2022-08-04T01:11:13;10.25;;;9.18;;
45252;SDS011;30988;50.518;30.486;2022-08-04T01:11:58;9.50;;;8.68;;
45252;SDS011;30988;50.518;30.486;2022-08-04T01:12:45;10.30;;;9.38;;
45252;SDS011;30988;50.518;30.486;2022-08-04T01:13:32;10.27;;;9.40;;
45252;SDS011;30988;50.518;30.486;2022-08-04T01:14:13;9.13;;;8.23;;
45252;SDS011;30988;50.518;30.486;2022-08-04T01:14:59;8.73;;;8.02;;
45252;SDS011;30988;50.518;30.486;2022-08-04T01:15:37;10.02;;;9.00;;
45252;SDS011;30988;50.518;30.486;2022-08-04T01:16:15;8.75;;;8.10;;
45252;SDS011;30988;50.518;30.486;2022-08-04T01:16:48;10.27;;;9.32;;
45252;SDS011;30988;50.518;30.486;2022-08-04T01:17:23;10.18;;;9.25;;
45252;SDS011;30988;50.518;30.486;2022-08-04T01:17:59;10.77;;;9.85;;
45252;SDS011;30988;50.518;30.486;2022-08-04T01:18:39;10.85;;;9.05;;
45252;SDS011;30988;50.518;30.486;2022-08-04T01:20:24;8.70;;;7.78;;
45252;SDS011;30988;50.518;30.486;2022-08-04T01:21:01;9.73;;;8.82;;
45252;SDS011;30988;50.518;30.486;2022-08-04T01:21:52;9.07;;;8.27;;
45252;SDS011;30988;50.518;30.486;2022-08-04T01:24:13;9.45;;;8.27;;
45252;SDS011;30988;50.518;30.486;2022-08-04T01:25:02;9.43;;;6.97;;
45252;SDS011;30988;50.518;30.486;2022-08-04T01:26:08;7.88;;;7.15;;
45252;SDS011;30988;50.518;30.486;2022-08-04T01:26:56;8.48;;;7.53;;
45252;SDS011;30988;50.518;30.486;2022-08-04T01:27:38;10.43;;;9.40;;
45252;SDS011;30988;50.518;30.486;2022-08-04T01:28:33;8.73;;;8.05;;
45252;SDS011;30988;50.518;30.486;2022-08-04T01:29:18;9.15;;;8.35;;
45252;SDS011;30988;50.518;30.486;2022-08-04T01:29:53;7.95;;;7.35;;
45252;SDS011;30988;50.518;30.486;2022-08-04T01:30:26;9.07;;;8.43;;
45252;SDS011;30988;50.518;30.486;2022-08-04T01:31:02;8.82;;;8.13;;
45252;SDS011;30988;50.518;30.486;2022-08-04T01:32:33;8.55;;;7.93;;
45252;SDS011;30988;50.518;30.486;2022-08-04T01:33:10;8.63;;;7.82;;
45252;SDS011;30988;50.518;30.486;2022-08-04T01:33:43;8.13;;;7.45;;
45252;SDS011;30988;50.518;30.486;2022-08-04T01:34:18;8.95;;;7.32;;
45252;SDS011;30988;50.518;30.486;2022-08-04T01:34:55;8.65;;;7.95;;
45252;SDS011;30988;50.518;30.486;2022-08-04T01:35:33;9.63;;;7.93;;
45252;SDS011;30988;50.518;30.486;2022-08-04T01:36:09;8.43;;;7.72;;
45252;SDS011;30988;50.518;30.486;2022-08-04T01:36:44;9.18;;;8.38;;
45252;SDS011;30988;50.518;30.486;2022-08-04T01:37:24;8.75;;;7.95;;
45252;SDS011;30988;50.518;30.486;2022-08-04T01:38:10;7.82;;;7.20;;
45252;SDS011;30988;50.518;30.486;2022-08-04T01:38:49;9.00;;;8.02;;
45252;SDS011;30988;50.518;30.486;2022-08-04T01:39:23;9.32;;;8.50;;
45252;SDS011;30988;50.518;30.486;2022-08-04T01:40:12;8.05;;;7.30;;
45252;SDS011;30988;50.518;30.486;2022-08-04T01:40:45;9.25;;;8.00;;
45252;SDS011;30988;50.518;30.486;2022-08-04T01:41:18;12.82;;;8.85;;
45252;SDS011;30988;50.518;30.486;2022-08-04T01:41:50;9.25;;;8.50;;
45252;SDS011;30988;50.518;30.486;2022-08-04T01:42:22;8.40;;;7.72;;
45252;SDS011;30988;50.518;30.486;2022-08-04T01:42:57;8.93;;;8.23;;
45252;SDS011;30988;50.518;30.486;2022-08-04T01:43:32;10.20;;;8.43;;
45252;SDS011;30988;50.518;30.486;2022-08-04T01:44:05;10.40;;;9.05;;
45252;SDS011;30988;50.518;30.486;2022-08-04T01:44:41;8.10;;;7.40;;
45252;SDS011;30988;50.518;30.486;2022-08-04T01:45:13;8.75;;;8.05;;
45252;SDS011;30988;50.518;30.486;2022-08-04T01:45:47;9.80;;;8.85;;
45252;SDS011;30988;50.518;30.486;2022-08-04T01:46:20;9.23;;;8.43;;
45252;SDS011;30988;50.518;30.486;2022-08-04T01:46:53;9.43;;;8.45;;
45252;SDS011;30988;50.518;30.486;2022-08-04T01:47:25;9.98;;;9.00;;
45252;SDS011;30988;50.518;30.486;2022-08-04T01:48:00;10.10;;;9.32;;
45252;SDS011;30988;50.518;30.486;2022-08-04T01:48:33;10.15;;;9.35;;
45252;SDS011;30988;50.518;30.486;2022-08-04T01:49:08;12.63;;;8.75;;
45252;SDS011;30988;50.518;30.486;2022-08-04T01:49:42;13.50;;;9.00;;
45252;SDS011;30988;50.518;30.486;2022-08-04T01:50:18;9.93;;;8.95;;
45252;SDS011;30988;50.518;30.486;2022-08-04T01:50:51;9.52;;;8.25;;
45252;SDS011;30988;50.518;30.486;2022-08-04T01:51:24;10.70;;;9.68;;
45252;SDS011;30988;50.518;30.486;2022-08-04T01:51:55;9.88;;;8.93;;
45252;SDS011;30988;50.518;30.486;2022-08-04T01:52:28;12.07;;;10.85;;
45252;SDS011;30988;50.518;30.486;2022-08-04T01:53:02;10.77;;;9.88;;
45252;SDS011;30988;50.518;30.486;2022-08-04T01:53:35;11.05;;;10.15;;
45252;SDS011;30988;50.518;30.486;2022-08-04T01:54:08;10.50;;;9.52;;
45252;SDS011;30988;50.518;30.486;2022-08-04T01:54:40;10.50;;;9.45;;
45252;SDS011;30988;50.518;30.486;2022-08-04T01:55:12;14.57;;;10.93;;
45252;SDS011;30988;50.518;30.486;2022-08-04T01:55:47;10.02;;;9.05;;
45252;SDS011;30988;50.518;30.486;2022-08-04T01:56:19;13.88;;;9.70;;
45252;SDS011;30988;50.518;30.486;2022-08-04T01:56:52;10.82;;;9.82;;
45252;SDS011;30988;50.518;30.486;2022-08-04T01:57:25;13.98;;;10.73;;
45252;SDS011;30988;50.518;30.486;2022-08-04T01:57:59;10.68;;;9.75;;
45252;SDS011;30988;50.518;30.486;2022-08-04T01:58:32;10.43;;;9.43;;
45252;SDS011;30988;50.518;30.486;2022-08-04T01:59:04;10.05;;;9.25;;
45252;SDS011;30988;50.518;30.486;2022-08-04T01:59:37;10.00;;;9.13;;
45252;SDS011;30988;50.518;30.486;2022-08-04T02:00:11;11.57;;;10.68;;
45252;SDS011;30988;50.518;30.486;2022-08-04T02:00:45;11.00;;;10.02;;
45252;SDS011;30988;50.518;30.486;2022-08-04T02:01:26;11.30;;;10.18;;
45252;SDS011;30988;50.518;30.486;2022-08-04T02:01:57;12.13;;;11.02;;
45252;SDS011;30988;50.518;30.486;2022-08-04T02:02:28;12.70;;;11.38;;
45252;SDS011;30988;50.518;30.486;2022-08-04T02:03:00;14.45;;;10.98;;
45252;SDS011;30988;50.518;30.486;2022-08-04T02:03:32;12.40;;;11.20;;
45252;SDS011;30988;50.518;30.486;2022-08-04T02:04:05;11.25;;;10.25;;
45252;SDS011;30988;50.518;30.486;2022-08-04T02:04:37;17.48;;;12.52;;
45252;SDS011;30988;50.518;30.486;2022-08-04T02:05:09;12.02;;;10.88;;
45252;SDS011;30988;50.518;30.486;2022-08-04T02:05:41;12.00;;;11.00;;
45252;SDS011;30988;50.518;30.486;2022-08-04T02:06:22;11.18;;;10.15;;
45252;SDS011;30988;50.518;30.486;2022-08-04T02:07:02;12.50;;;11.27;;
45252;SDS011;30988;50.518;30.486;2022-08-04T02:07:46;12.32;;;11.25;;
45252;SDS011;30988;50.518;30.486;2022-08-04T02:08:34;10.48;;;9.43;;
45252;SDS011;30988;50.518;30.486;2022-08-04T02:09:15;12.02;;;10.95;;
45252;SDS011;30988;50.518;30.486;2022-08-04T02:09:55;11.90;;;10.73;;
45252;SDS011;30988;50.518;30.486;2022-08-04T02:10:42;12.77;;;11.50;;
45252;SDS011;30988;50.518;30.486;2022-08-04T02:11:24;12.18;;;11.07;;
45252;SDS011;30988;50.518;30.486;2022-08-04T02:12:00;12.13;;;11.07;;
45252;SDS011;30988;50.518;30.486;2022-08-04T02:12:42;13.27;;;11.95;;
45252;SDS011;30988;50.518;30.486;2022-08-04T02:13:26;12.00;;;10.77;;
45252;SDS011;30988;50.518;30.486;2022-08-04T02:14:05;12.25;;;11.18;;
45252;SDS011;30988;50.518;30.486;2022-08-04T02:15:14;13.10;;;12.00;;
45252;SDS011;30988;50.518;30.486;2022-08-04T02:15:57;12.77;;;11.48;;
45252;SDS011;30988;50.518;30.486;2022-08-04T02:16:36;11.73;;;10.73;;
45252;SDS011;30988;50.518;30.486;2022-08-04T02:17:14;12.10;;;11.00;;
45252;SDS011;30988;50.518;30.486;2022-08-04T02:17:56;13.02;;;11.85;;
45252;SDS011;30988;50.518;30.486;2022-08-04T02:18:36;14.80;;;13.50;;
45252;SDS011;30988;50.518;30.486;2022-08-04T02:19:15;13.85;;;11.52;;
45252;SDS011;30988;50.518;30.486;2022-08-04T02:20:00;12.75;;;11.57;;
45252;SDS011;30988;50.518;30.486;2022-08-04T02:20:37;14.13;;;12.77;;
45252;SDS011;30988;50.518;30.486;2022-08-04T02:21:13;14.48;;;13.13;;
45252;SDS011;30988;50.518;30.486;2022-08-04T02:21:50;13.85;;;12.70;;
45252;SDS011;30988;50.518;30.486;2022-08-04T02:22:27;13.48;;;12.27;;
45252;SDS011;30988;50.518;30.486;2022-08-04T02:23:00;12.77;;;11.77;;
45252;SDS011;30988;50.518;30.486;2022-08-04T02:23:34;14.80;;;12.00;;
45252;SDS011;30988;50.518;30.486;2022-08-04T02:24:11;13.13;;;11.93;;
45252;SDS011;30988;50.518;30.486;2022-08-04T02:24:48;12.95;;;11.90;;
45252;SDS011;30988;50.518;30.486;2022-08-04T02:25:25;13.45;;;11.73;;
45252;SDS011;30988;50.518;30.486;2022-08-04T02:26:00;14.15;;;12.85;;
45252;SDS011;30988;50.518;30.486;2022-08-04T02:26:33;14.13;;;12.85;;
45252;SDS011;30988;50.518;30.486;2022-08-04T02:27:06;16.83;;;12.40;;
45252;SDS011;30988;50.518;30.486;2022-08-04T02:27:53;13.50;;;12.00;;
45252;SDS011;30988;50.518;30.486;2022-08-04T02:28:32;14.45;;;13.20;;
45252;SDS011;30988;50.518;30.486;2022-08-04T02:29:10;14.15;;;12.98;;
45252;SDS011;30988;50.518;30.486;2022-08-04T02:29:49;12.55;;;11.55;;
45252;SDS011;30988;50.518;30.486;2022-08-04T02:30:27;12.60;;;11.40;;
45252;SDS011;30988;50.518;30.486;2022-08-04T02:31:05;14.48;;;12.98;;
45252;SDS011;30988;50.518;30.486;2022-08-04T02:31:45;14.90;;;13.60;;
45252;SDS011;30988;50.518;30.486;2022-08-04T02:32:23;15.05;;;13.63;;
45252;SDS011;30988;50.518;30.486;2022-08-04T02:32:57;13.73;;;12.57;;
45252;SDS011;30988;50.518;30.486;2022-08-04T02:33:35;15.50;;;13.32;;
45252;SDS011;30988;50.518;30.486;2022-08-04T02:34:10;13.20;;;12.10;;
45252;SDS011;30988;50.518;30.486;2022-08-04T02:34:47;12.07;;;11.10;;
45252;SDS011;30988;50.518;30.486;2022-08-04T02:35:24;15.07;;;13.75;;
45252;SDS011;30988;50.518;30.486;2022-08-04T02:35:58;14.38;;;13.10;;
45252;SDS011;30988;50.518;30.486;2022-08-04T02:36:34;14.15;;;12.80;;
45252;SDS011;30988;50.518;30.486;2022-08-04T02:37:07;14.27;;;12.32;;
45252;SDS011;30988;50.518;30.486;2022-08-04T02:37:41;14.85;;;13.50;;
45252;SDS011;30988;50.518;30.486;2022-08-04T02:38:20;13.23;;;12.07;;
45252;SDS011;30988;50.518;30.486;2022-08-04T02:38:59;14.13;;;12.73;;
45252;SDS011;30988;50.518;30.486;2022-08-04T02:39:32;14.27;;;12.85;;
45252;SDS011;30988;50.518;30.486;2022-08-04T02:40:05;13.98;;;12.70;;
45252;SDS011;30988;50.518;30.486;2022-08-04T02:40:38;13.68;;;12.48;;
45252;SDS011;30988;50.518;30.486;2022-08-04T02:41:12;14.55;;;13.05;;
45252;SDS011;30988;50.518;30.486;2022-08-04T02:41:47;15.85;;;14.13;;
45252;SDS011;30988;50.518;30.486;2022-08-04T02:42:19;13.98;;;12.77;;
45252;SDS011;30988;50.518;30.486;2022-08-04T02:42:52;16.42;;;14.10;;
45252;SDS011;30988;50.518;30.486;2022-08-04T02:43:27;13.80;;;12.60;;
45252;SDS011;30988;50.518;30.486;2022-08-04T02:44:00;14.63;;;13.25;;
45252;SDS011;30988;50.518;30.486;2022-08-04T02:44:33;15.55;;;13.93;;
45252;SDS011;30988;50.518;30.486;2022-08-04T02:45:07;13.55;;;12.45;;
45252;SDS011;30988;50.518;30.486;2022-08-04T02:45:40;15.52;;;14.13;;
45252;SDS011;30988;50.518;30.486;2022-08-04T02:46:13;14.20;;;13.07;;
45252;SDS011;30988;50.518;30.486;2022-08-04T02:46:50;14.30;;;12.95;;
45252;SDS011;30988;50.518;30.486;2022-08-04T02:47:23;14.75;;;13.38;;
45252;SDS011;30988;50.518;30.486;2022-08-04T02:47:55;14.10;;;12.88;;
45252;SDS011;30988;50.518;30.486;2022-08-04T02:48:30;14.85;;;13.45;;
45252;SDS011;30988;50.518;30.486;2022-08-04T02:49:05;14.82;;;11.00;;
45252;SDS011;30988;50.518;30.486;2022-08-04T02:49:38;14.07;;;12.82;;
45252;SDS011;30988;50.518;30.486;2022-08-04T02:50:13;13.65;;;12.30;;
45252;SDS011;30988;50.518;30.486;2022-08-04T02:50:44;12.38;;;11.48;;
45252;SDS011;30988;50.518;30.486;2022-08-04T02:51:22;12.05;;;11.00;;
45252;SDS011;30988;50.518;30.486;2022-08-04T02:51:56;12.23;;;11.23;;
45252;SDS011;30988;50.518;30.486;2022-08-04T02:52:28;14.35;;;13.23;;
45252;SDS011;30988;50.518;30.486;2022-08-04T02:53:02;14.23;;;12.95;;
45252;SDS011;30988;50.518;30.486;2022-08-04T02:53:35;13.90;;;12.63;;
45252;SDS011;30988;50.518;30.486;2022-08-04T02:54:07;13.57;;;12.18;;
45252;SDS011;30988;50.518;30.486;2022-08-04T02:54:39;14.25;;;12.70;;
45252;SDS011;30988;50.518;30.486;2022-08-04T02:55:12;13.85;;;12.80;;
45252;SDS011;30988;50.518;30.486;2022-08-04T02:55:45;12.60;;;11.43;;
45252;SDS011;30988;50.518;30.486;2022-08-04T02:56:18;13.73;;;12.52;;
45252;SDS011;30988;50.518;30.486;2022-08-04T02:56:53;14.45;;;12.95;;
45252;SDS011;30988;50.518;30.486;2022-08-04T02:57:28;13.63;;;12.52;;
45252;SDS011;30988;50.518;30.486;2022-08-04T02:58:01;14.00;;;12.80;;
45252;SDS011;30988;50.518;30.486;2022-08-04T02:58:36;14.48;;;13.13;;
45252;SDS011;30988;50.518;30.486;2022-08-04T02:59:08;13.60;;;12.48;;
45252;SDS011;30988;50.518;30.486;2022-08-04T02:59:44;13.52;;;12.45;;
45252;SDS011;30988;50.518;30.486;2022-08-04T03:00:29;14.25;;;12.75;;
45252;SDS011;30988;50.518;30.486;2022-08-04T03:01:03;18.83;;;12.45;;
45252;SDS011;30988;50.518;30.486;2022-08-04T03:01:34;16.25;;;12.43;;
45252;SDS011;30988;50.518;30.486;2022-08-04T03:02:07;14.70;;;13.23;;
45252;SDS011;30988;50.518;30.486;2022-08-04T03:02:43;14.50;;;13.02;;
45252;SDS011;30988;50.518;30.486;2022-08-04T03:03:25;13.07;;;11.88;;
45252;SDS011;30988;50.518;30.486;2022-08-04T03:04:21;15.10;;;13.07;;
45252;SDS011;30988;50.518;30.486;2022-08-04T03:05:05;13.15;;;11.90;;
45252;SDS011;30988;50.518;30.486;2022-08-04T03:05:49;16.38;;;12.55;;
45252;SDS011;30988;50.518;30.486;2022-08-04T03:06:47;13.38;;;11.93;;
45252;SDS011;30988;50.518;30.486;2022-08-04T03:09:55;12.73;;;11.10;;
45252;SDS011;30988;50.518;30.486;2022-08-04T03:10:58;13.15;;;11.98;;
45252;SDS011;30988;50.518;30.486;2022-08-04T03:14:20;13.30;;;11.93;;
45252;SDS011;30988;50.518;30.486;2022-08-04T03:15:11;13.20;;;11.82;;
45252;SDS011;30988;50.518;30.486;2022-08-04T03:16:24;12.80;;;11.52;;
45252;SDS011;30988;50.518;30.486;2022-08-04T03:17:20;17.60;;;11.85;;
45252;SDS011;30988;50.518;30.486;2022-08-04T03:18:37;13.32;;;11.98;;
45252;SDS011;30988;50.518;30.486;2022-08-04T03:19:40;12.05;;;10.93;;
45252;SDS011;30988;50.518;30.486;2022-08-04T03:21:00;13.55;;;11.88;;
45252;SDS011;30988;50.518;30.486;2022-08-04T03:21:57;13.07;;;11.73;;
45252;SDS011;30988;50.518;30.486;2022-08-04T03:22:50;12.57;;;11.57;;
45252;SDS011;30988;50.518;30.486;2022-08-04T03:23:41;16.88;;;11.55;;
45252;SDS011;30988;50.518;30.486;2022-08-04T03:24:56;13.50;;;12.20;;
45252;SDS011;30988;50.518;30.486;2022-08-04T03:25:49;14.20;;;12.82;;
45252;SDS011;30988;50.518;30.486;2022-08-04T03:26:49;13.60;;;12.40;;
45252;SDS011;30988;50.518;30.486;2022-08-04T03:30:13;12.80;;;11.55;;
45252;SDS011;30988;50.518;30.486;2022-08-04T03:30:50;12.70;;;11.27;;
45252;SDS011;30988;50.518;30.486;2022-08-04T03:33:06;13.35;;;12.05;;
45252;SDS011;30988;50.518;30.486;2022-08-04T03:34:02;14.65;;;13.25;;
45252;SDS011;30988;50.518;30.486;2022-08-04T03:34:58;14.02;;;12.73;;
45252;SDS011;30988;50.518;30.486;2022-08-04T03:35:51;12.55;;;11.45;;
45252;SDS011;30988;50.518;30.486;2022-08-04T03:36:59;13.45;;;12.25;;
45252;SDS011;30988;50.518;30.486;2022-08-04T03:40:54;12.98;;;11.88;;
45252;SDS011;30988;50.518;30.486;2022-08-04T03:42:03;15.05;;;13.65;;
45252;SDS011;30988;50.518;30.486;2022-08-04T03:44:14;16.35;;;14.18;;
45252;SDS011;30988;50.518;30.486;2022-08-04T03:45:13;16.95;;;15.10;;
45252;SDS011;30988;50.518;30.486;2022-08-04T03:48:24;13.65;;;12.43;;
45252;SDS011;30988;50.518;30.486;2022-08-04T03:49:35;15.00;;;13.70;;
45252;SDS011;30988;50.518;30.486;2022-08-04T03:50:28;14.38;;;12.98;;
45252;SDS011;30988;50.518;30.486;2022-08-04T03:52:33;15.88;;;14.45;;
45252;SDS011;30988;50.518;30.486;2022-08-04T03:53:42;14.85;;;13.30;;
45252;SDS011;30988;50.518;30.486;2022-08-04T03:54:32;16.15;;;14.65;;
45252;SDS011;30988;50.518;30.486;2022-08-04T03:55:43;13.27;;;12.07;;
45252;SDS011;30988;50.518;30.486;2022-08-04T03:56:29;17.52;;;15.85;;
45252;SDS011;30988;50.518;30.486;2022-08-04T03:57:28;14.88;;;13.57;;
45252;SDS011;30988;50.518;30.486;2022-08-04T03:58:33;15.07;;;13.77;;
45252;SDS011;30988;50.518;30.486;2022-08-04T03:59:31;16.15;;;14.45;;
45252;SDS011;30988;50.518;30.486;2022-08-04T04:00:14;16.45;;;14.73;;
45252;SDS011;30988;50.518;30.486;2022-08-04T04:00:51;16.70;;;15.23;;
45252;SDS011;30988;50.518;30.486;2022-08-04T04:01:42;16.10;;;14.13;;
45252;SDS011;30988;50.518;30.486;2022-08-04T04:04:18;14.80;;;13.50;;
45252;SDS011;30988;50.518;30.486;2022-08-04T04:05:19;14.95;;;13.52;;
45252;SDS011;30988;50.518;30.486;2022-08-04T04:06:20;15.02;;;13.80;;
45252;SDS011;30988;50.518;30.486;2022-08-04T04:07:22;16.23;;;14.70;;
45252;SDS011;30988;50.518;30.486;2022-08-04T04:08:28;16.52;;;13.88;;
45252;SDS011;30988;50.518;30.486;2022-08-04T04:10:51;18.25;;;15.38;;
45252;SDS011;30988;50.518;30.486;2022-08-04T04:11:56;15.52;;;14.23;;
45252;SDS011;30988;50.518;30.486;2022-08-04T04:12:51;15.95;;;14.57;;
45252;SDS011;30988;50.518;30.486;2022-08-04T04:13:56;16.55;;;14.95;;
45252;SDS011;30988;50.518;30.486;2022-08-04T04:14:45;15.15;;;13.75;;
45252;SDS011;30988;50.518;30.486;2022-08-04T04:16:31;15.52;;;14.02;;
45252;SDS011;30988;50.518;30.486;2022-08-04T04:17:26;16.33;;;14.82;;
45252;SDS011;30988;50.518;30.486;2022-08-04T04:18:18;15.70;;;14.25;;
45252;SDS011;30988;50.518;30.486;2022-08-04T04:20:32;16.58;;;14.32;;
45252;SDS011;30988;50.518;30.486;2022-08-04T04:21:24;16.50;;;14.88;;
45252;SDS011;30988;50.518;30.486;2022-08-04T04:22:05;18.23;;;15.43;;
45252;SDS011;30988;50.518;30.486;2022-08-04T04:22:51;18.17;;;15.23;;
45252;SDS011;30988;50.518;30.486;2022-08-04T04:23:47;16.30;;;14.60;;
45252;SDS011;30988;50.518;30.486;2022-08-04T04:24:46;14.90;;;13.10;;
45252;SDS011;30988;50.518;30.486;2022-08-04T04:25:29;17.02;;;15.32;;
45252;SDS011;30988;50.518;30.486;2022-08-04T04:26:10;18.23;;;14.57;;
45252;SDS011;30988;50.518;30.486;2022-08-04T04:27:01;16.02;;;14.60;;